sensor_id;sensor_type;location;lat;lon;timestamp;temperature;humidity
75357;HTU21D;63946;51.986;5.930;2023-05-21T00:00:10;15.77;55.43
75357;HTU21D;63946;51.986;5.930;2023-05-21T00:02:39;15.80;55.39
75357;HTU21D;63946;51.986;5.930;2023-05-21T00:05:08;15.80;55.33
75357;HTU21D;63946;51.986;5.930;2023-05-21T00:07:40;15.80;55.34
75357;HTU21D;63946;51.986;5.930;2023-05-21T00:10:09;15.82;55.44
75357;HTU21D;63946;51.986;5.930;2023-05-21T00:12:38;15.81;55.59
75357;HTU21D;63946;51.986;5.930;2023-05-21T00:15:07;15.80;55.67
75357;HTU21D;63946;51.986;5.930;2023-05-21T00:17:38;15.81;55.68
75357;HTU21D;63946;51.986;5.930;2023-05-21T00:20:08;15.86;55.49
75357;HTU21D;63946;51.986;5.930;2023-05-21T00:22:37;15.85;55.52
75357;HTU21D;63946;51.986;5.930;2023-05-21T00:25:10;15.85;55.62
75357;HTU21D;63946;51.986;5.930;2023-05-21T00:27:39;15.87;55.56
75357;HTU21D;63946;51.986;5.930;2023-05-21T00:30:08;15.85;55.77
75357;HTU21D;63946;51.986;5.930;2023-05-21T00:32:36;15.78;56.06
75357;HTU21D;63946;51.986;5.930;2023-05-21T00:35:06;15.76;56.16
75357;HTU21D;63946;51.986;5.930;2023-05-21T00:37:35;15.77;56.19
75357;HTU21D;63946;51.986;5.930;2023-05-21T00:40:06;15.77;56.29
75357;HTU21D;63946;51.986;5.930;2023-05-21T00:42:36;15.77;56.29
75357;HTU21D;63946;51.986;5.930;2023-05-21T00:45:07;15.77;56.36
75357;HTU21D;63946;51.986;5.930;2023-05-21T00:47:36;15.75;56.44
75357;HTU21D;63946;51.986;5.930;2023-05-21T00:50:06;15.77;56.31
75357;HTU21D;63946;51.986;5.930;2023-05-21T00:52:35;15.73;56.55
75357;HTU21D;63946;51.986;5.930;2023-05-21T00:55:07;15.72;56.61
75357;HTU21D;63946;51.986;5.930;2023-05-21T00:57:37;15.73;56.48
75357;HTU21D;63946;51.986;5.930;2023-05-21T01:00:07;15.72;56.52
75357;HTU21D;63946;51.986;5.930;2023-05-21T01:02:37;15.72;56.59
75357;HTU21D;63946;51.986;5.930;2023-05-21T01:05:07;15.70;56.84
75357;HTU21D;63946;51.986;5.930;2023-05-21T01:07:38;15.66;57.17
75357;HTU21D;63946;51.986;5.930;2023-05-21T01:10:09;15.60;57.42
75357;HTU21D;63946;51.986;5.930;2023-05-21T01:12:40;15.56;57.55
75357;HTU21D;63946;51.986;5.930;2023-05-21T01:15:11;15.53;57.65
75357;HTU21D;63946;51.986;5.930;2023-05-21T01:17:40;15.55;57.69
75357;HTU21D;63946;51.986;5.930;2023-05-21T01:20:11;15.52;57.69
75357;HTU21D;63946;51.986;5.930;2023-05-21T01:22:52;15.53;57.80
75357;HTU21D;63946;51.986;5.930;2023-05-21T01:25:23;15.57;57.81
75357;HTU21D;63946;51.986;5.930;2023-05-21T01:27:52;15.52;57.93
75357;HTU21D;63946;51.986;5.930;2023-05-21T01:30:21;15.56;57.98
75357;HTU21D;63946;51.986;5.930;2023-05-21T01:33:02;15.56;58.03
75357;HTU21D;63946;51.986;5.930;2023-05-21T01:35:34;15.57;58.01
75357;HTU21D;63946;51.986;5.930;2023-05-21T01:38:08;15.54;58.09
75357;HTU21D;63946;51.986;5.930;2023-05-21T01:40:52;15.54;58.22
75357;HTU21D;63946;51.986;5.930;2023-05-21T01:43:25;15.53;58.25
75357;HTU21D;63946;51.986;5.930;2023-05-21T01:45:56;15.49;58.35
75357;HTU21D;63946;51.986;5.930;2023-05-21T01:48:27;15.48;58.33
75357;HTU21D;63946;51.986;5.930;2023-05-21T01:50:59;15.49;58.48
75357;HTU21D;63946;51.986;5.930;2023-05-21T01:53:28;15.49;58.52
75357;HTU21D;63946;51.986;5.930;2023-05-21T01:55:57;15.48;58.45
75357;HTU21D;63946;51.986;5.930;2023-05-21T01:58:27;15.51;58.46
75357;HTU21D;63946;51.986;5.930;2023-05-21T02:00:56;15.47;58.69
75357;HTU21D;63946;51.986;5.930;2023-05-21T02:03:26;15.39;58.93
75357;HTU21D;63946;51.986;5.930;2023-05-21T02:05:55;15.36;59.10
75357;HTU21D;63946;51.986;5.930;2023-05-21T02:08:24;15.36;59.09
75357;HTU21D;63946;51.986;5.930;2023-05-21T02:10:57;15.37;59.16
75357;HTU21D;63946;51.986;5.930;2023-05-21T02:13:25;15.36;59.19
75357;HTU21D;63946;51.986;5.930;2023-05-21T02:15:54;15.34;59.28
75357;HTU21D;63946;51.986;5.930;2023-05-21T02:18:26;15.36;59.34
75357;HTU21D;63946;51.986;5.930;2023-05-21T02:20:54;15.36;59.32
75357;HTU21D;63946;51.986;5.930;2023-05-21T02:23:23;15.33;59.34
75357;HTU21D;63946;51.986;5.930;2023-05-21T02:25:52;15.32;59.44
75357;HTU21D;63946;51.986;5.930;2023-05-21T02:28:20;15.30;59.56
75357;HTU21D;63946;51.986;5.930;2023-05-21T02:30:49;15.31;59.45
75357;HTU21D;63946;51.986;5.930;2023-05-21T02:33:18;15.31;59.50
75357;HTU21D;63946;51.986;5.930;2023-05-21T02:35:47;15.27;59.77
75357;HTU21D;63946;51.986;5.930;2023-05-21T02:38:15;15.23;59.92
75357;HTU21D;63946;51.986;5.930;2023-05-21T02:40:48;15.19;60.05
75357;HTU21D;63946;51.986;5.930;2023-05-21T02:43:18;15.18;59.77
75357;HTU21D;63946;51.986;5.930;2023-05-21T02:45:46;15.18;59.73
75357;HTU21D;63946;51.986;5.930;2023-05-21T02:48:16;15.17;60.00
75357;HTU21D;63946;51.986;5.930;2023-05-21T02:50:44;15.17;60.12
75357;HTU21D;63946;51.986;5.930;2023-05-21T02:53:13;15.13;60.37
75357;HTU21D;63946;51.986;5.930;2023-05-21T02:55:42;15.09;60.59
75357;HTU21D;63946;51.986;5.930;2023-05-21T02:58:10;15.06;60.73
75357;HTU21D;63946;51.986;5.930;2023-05-21T03:00:40;15.04;60.75
75357;HTU21D;63946;51.986;5.930;2023-05-21T03:03:09;15.06;60.74
75357;HTU21D;63946;51.986;5.930;2023-05-21T03:05:37;15.06;60.80
75357;HTU21D;63946;51.986;5.930;2023-05-21T03:08:06;15.08;60.76
75357;HTU21D;63946;51.986;5.930;2023-05-21T03:10:35;15.07;60.84
75357;HTU21D;63946;51.986;5.930;2023-05-21T03:13:03;15.10;60.79
75357;HTU21D;63946;51.986;5.930;2023-05-21T03:15:32;15.09;60.86
75357;HTU21D;63946;51.986;5.930;2023-05-21T03:18:03;15.08;60.79
75357;HTU21D;63946;51.986;5.930;2023-05-21T03:20:32;15.08;60.96
75357;HTU21D;63946;51.986;5.930;2023-05-21T03:23:01;15.06;61.14
75357;HTU21D;63946;51.986;5.930;2023-05-21T03:25:29;15.03;61.30
75357;HTU21D;63946;51.986;5.930;2023-05-21T03:27:59;15.03;61.36
75357;HTU21D;63946;51.986;5.930;2023-05-21T03:30:46;15.03;61.34
75357;HTU21D;63946;51.986;5.930;2023-05-21T03:33:35;15.08;61.21
75357;HTU21D;63946;51.986;5.930;2023-05-21T03:36:16;15.12;61.10
75357;HTU21D;63946;51.986;5.930;2023-05-21T03:38:45;15.10;61.23
75357;HTU21D;63946;51.986;5.930;2023-05-21T03:41:14;15.10;61.34
75357;HTU21D;63946;51.986;5.930;2023-05-21T03:43:47;15.10;61.34
75357;HTU21D;63946;51.986;5.930;2023-05-21T03:46:17;15.11;61.36
75357;HTU21D;63946;51.986;5.930;2023-05-21T03:48:57;15.09;61.40
75357;HTU21D;63946;51.986;5.930;2023-05-21T03:51:29;15.07;61.50
75357;HTU21D;63946;51.986;5.930;2023-05-21T03:53:58;15.09;61.53
75357;HTU21D;63946;51.986;5.930;2023-05-21T03:56:27;15.12;61.41
75357;HTU21D;63946;51.986;5.930;2023-05-21T03:58:56;15.15;61.30
75357;HTU21D;63946;51.986;5.930;2023-05-21T04:01:24;15.13;61.43
75357;HTU21D;63946;51.986;5.930;2023-05-21T04:03:53;15.14;61.55
75357;HTU21D;63946;51.986;5.930;2023-05-21T04:06:23;15.13;61.57
75357;HTU21D;63946;51.986;5.930;2023-05-21T04:08:52;15.16;61.46
75357;HTU21D;63946;51.986;5.930;2023-05-21T04:11:21;15.17;61.56
75357;HTU21D;63946;51.986;5.930;2023-05-21T04:13:50;15.16;61.62
75357;HTU21D;63946;51.986;5.930;2023-05-21T04:16:19;15.16;61.70
75357;HTU21D;63946;51.986;5.930;2023-05-21T04:18:50;15.15;61.54
75357;HTU21D;63946;51.986;5.930;2023-05-21T04:21:20;15.15;61.62
75357;HTU21D;63946;51.986;5.930;2023-05-21T04:23:48;15.14;61.71
75357;HTU21D;63946;51.986;5.930;2023-05-21T04:26:30;15.15;61.89
75357;HTU21D;63946;51.986;5.930;2023-05-21T04:29:00;15.14;61.99
75357;HTU21D;63946;51.986;5.930;2023-05-21T04:31:30;15.16;62.05
75357;HTU21D;63946;51.986;5.930;2023-05-21T04:34:01;15.19;61.96
75357;HTU21D;63946;51.986;5.930;2023-05-21T04:36:30;15.21;62.11
75357;HTU21D;63946;51.986;5.930;2023-05-21T04:38:59;15.22;62.13
75357;HTU21D;63946;51.986;5.930;2023-05-21T04:41:30;15.22;62.25
75357;HTU21D;63946;51.986;5.930;2023-05-21T04:43:59;15.26;62.31
75357;HTU21D;63946;51.986;5.930;2023-05-21T04:46:30;15.27;62.25
75357;HTU21D;63946;51.986;5.930;2023-05-21T04:49:03;15.32;62.16
75357;HTU21D;63946;51.986;5.930;2023-05-21T04:51:32;15.30;62.29
75357;HTU21D;63946;51.986;5.930;2023-05-21T04:54:02;15.32;62.31
75357;HTU21D;63946;51.986;5.930;2023-05-21T04:56:34;15.33;62.54
75357;HTU21D;63946;51.986;5.930;2023-05-21T04:59:03;15.27;62.74
75357;HTU21D;63946;51.986;5.930;2023-05-21T05:01:33;15.21;62.95
75357;HTU21D;63946;51.986;5.930;2023-05-21T05:04:03;15.25;62.98
75357;HTU21D;63946;51.986;5.930;2023-05-21T05:06:32;15.24;63.07
75357;HTU21D;63946;51.986;5.930;2023-05-21T05:09:01;15.25;63.18
75357;HTU21D;63946;51.986;5.930;2023-05-21T05:11:30;15.26;63.19
75357;HTU21D;63946;51.986;5.930;2023-05-21T05:13:58;15.29;63.15
75357;HTU21D;63946;51.986;5.930;2023-05-21T05:16:28;15.26;63.36
75357;HTU21D;63946;51.986;5.930;2023-05-21T05:18:57;15.26;63.43
75357;HTU21D;63946;51.986;5.930;2023-05-21T05:21:26;15.25;63.54
75357;HTU21D;63946;51.986;5.930;2023-05-21T05:23:58;15.25;63.68
75357;HTU21D;63946;51.986;5.930;2023-05-21T05:26:30;15.34;63.32
75357;HTU21D;63946;51.986;5.930;2023-05-21T05:28:59;15.45;63.09
75357;HTU21D;63946;51.986;5.930;2023-05-21T05:31:28;15.45;63.27
75357;HTU21D;63946;51.986;5.930;2023-05-21T05:33:56;15.46;63.22
75357;HTU21D;63946;51.986;5.930;2023-05-21T05:36:25;15.44;63.20
75357;HTU21D;63946;51.986;5.930;2023-05-21T05:38:54;15.44;63.30
75357;HTU21D;63946;51.986;5.930;2023-05-21T05:41:23;15.46;63.27
75357;HTU21D;63946;51.986;5.930;2023-05-21T05:43:52;15.47;63.31
75357;HTU21D;63946;51.986;5.930;2023-05-21T05:46:21;15.54;63.24
75357;HTU21D;63946;51.986;5.930;2023-05-21T05:48:50;15.59;63.21
75357;HTU21D;63946;51.986;5.930;2023-05-21T05:51:19;15.58;63.31
75357;HTU21D;63946;51.986;5.930;2023-05-21T05:53:48;15.55;63.45
75357;HTU21D;63946;51.986;5.930;2023-05-21T05:56:17;15.52;63.66
75357;HTU21D;63946;51.986;5.930;2023-05-21T05:58:46;15.52;63.70
75357;HTU21D;63946;51.986;5.930;2023-05-21T06:01:17;15.56;63.50
75357;HTU21D;63946;51.986;5.930;2023-05-21T06:03:49;15.65;63.37
75357;HTU21D;63946;51.986;5.930;2023-05-21T06:06:19;15.70;63.31
75357;HTU21D;63946;51.986;5.930;2023-05-21T06:08:48;15.70;63.37
75357;HTU21D;63946;51.986;5.930;2023-05-21T06:11:18;15.72;63.37
75357;HTU21D;63946;51.986;5.930;2023-05-21T06:13:47;15.76;63.37
75357;HTU21D;63946;51.986;5.930;2023-05-21T06:16:17;15.81;63.21
75357;HTU21D;63946;51.986;5.930;2023-05-21T06:18:46;15.84;63.25
75357;HTU21D;63946;51.986;5.930;2023-05-21T06:21:15;15.87;63.34
75357;HTU21D;63946;51.986;5.930;2023-05-21T06:23:45;15.88;63.21
75357;HTU21D;63946;51.986;5.930;2023-05-21T06:26:19;15.89;63.22
75357;HTU21D;63946;51.986;5.930;2023-05-21T06:28:50;15.98;63.15
75357;HTU21D;63946;51.986;5.930;2023-05-21T06:31:19;15.97;63.11
75357;HTU21D;63946;51.986;5.930;2023-05-21T06:33:48;16.00;63.05
75357;HTU21D;63946;51.986;5.930;2023-05-21T06:36:17;16.07;62.91
75357;HTU21D;63946;51.986;5.930;2023-05-21T06:38:46;16.16;62.70
75357;HTU21D;63946;51.986;5.930;2023-05-21T06:41:15;16.28;62.57
75357;HTU21D;63946;51.986;5.930;2023-05-21T06:44:02;16.36;62.46
75357;HTU21D;63946;51.986;5.930;2023-05-21T06:46:31;16.47;62.21
75357;HTU21D;63946;51.986;5.930;2023-05-21T06:49:00;16.60;61.93
75357;HTU21D;63946;51.986;5.930;2023-05-21T06:51:31;16.84;61.38
75357;HTU21D;63946;51.986;5.930;2023-05-21T06:54:02;17.08;60.61
75357;HTU21D;63946;51.986;5.930;2023-05-21T06:56:33;17.21;60.25
75357;HTU21D;63946;51.986;5.930;2023-05-21T06:59:02;17.36;60.02
75357;HTU21D;63946;51.986;5.930;2023-05-21T07:01:31;17.44;59.64
75357;HTU21D;63946;51.986;5.930;2023-05-21T07:04:01;17.53;59.40
75357;HTU21D;63946;51.986;5.930;2023-05-21T07:06:30;17.62;59.34
75357;HTU21D;63946;51.986;5.930;2023-05-21T07:09:00;17.91;58.73
75357;HTU21D;63946;51.986;5.930;2023-05-21T07:11:31;18.09;58.25
75357;HTU21D;63946;51.986;5.930;2023-05-21T07:14:02;18.09;58.13
75357;HTU21D;63946;51.986;5.930;2023-05-21T07:16:33;18.19;58.00
75357;HTU21D;63946;51.986;5.930;2023-05-21T07:19:01;18.33;57.72
75357;HTU21D;63946;51.986;5.930;2023-05-21T07:21:30;18.43;57.29
75357;HTU21D;63946;51.986;5.930;2023-05-21T07:24:04;18.48;57.35
75357;HTU21D;63946;51.986;5.930;2023-05-21T07:26:37;18.59;56.97
75357;HTU21D;63946;51.986;5.930;2023-05-21T07:29:05;18.59;56.78
75357;HTU21D;63946;51.986;5.930;2023-05-21T07:31:34;18.67;56.70
75357;HTU21D;63946;51.986;5.930;2023-05-21T07:34:03;18.63;56.72
75357;HTU21D;63946;51.986;5.930;2023-05-21T07:36:32;18.69;56.54
75357;HTU21D;63946;51.986;5.930;2023-05-21T07:39:02;18.69;56.44
75357;HTU21D;63946;51.986;5.930;2023-05-21T07:41:31;18.77;56.48
75357;HTU21D;63946;51.986;5.930;2023-05-21T07:44:06;18.71;56.58
75357;HTU21D;63946;51.986;5.930;2023-05-21T07:46:38;18.65;56.73
75357;HTU21D;63946;51.986;5.930;2023-05-21T07:49:08;18.72;56.63
75357;HTU21D;63946;51.986;5.930;2023-05-21T07:51:43;18.79;56.36
75357;HTU21D;63946;51.986;5.930;2023-05-21T07:54:11;18.89;56.30
75357;HTU21D;63946;51.986;5.930;2023-05-21T07:56:41;18.95;56.15
75357;HTU21D;63946;51.986;5.930;2023-05-21T07:59:20;19.06;55.78
75357;HTU21D;63946;51.986;5.930;2023-05-21T08:01:49;19.11;55.64
75357;HTU21D;63946;51.986;5.930;2023-05-21T08:04:18;19.12;55.58
75357;HTU21D;63946;51.986;5.930;2023-05-21T08:06:47;19.12;55.65
75357;HTU21D;63946;51.986;5.930;2023-05-21T08:09:19;19.20;55.60
75357;HTU21D;63946;51.986;5.930;2023-05-21T08:11:48;19.45;55.22
75357;HTU21D;63946;51.986;5.930;2023-05-21T08:14:17;19.79;54.62
75357;HTU21D;63946;51.986;5.930;2023-05-21T08:16:46;19.91;53.93
75357;HTU21D;63946;51.986;5.930;2023-05-21T08:19:14;19.89;54.10
75357;HTU21D;63946;51.986;5.930;2023-05-21T08:21:43;20.10;53.66
75357;HTU21D;63946;51.986;5.930;2023-05-21T08:24:12;20.13;53.48
75357;HTU21D;63946;51.986;5.930;2023-05-21T08:26:41;20.21;53.51
75357;HTU21D;63946;51.986;5.930;2023-05-21T08:29:12;20.34;52.93
75357;HTU21D;63946;51.986;5.930;2023-05-21T08:31:41;20.42;52.88
75357;HTU21D;63946;51.986;5.930;2023-05-21T08:34:10;20.64;52.33
75357;HTU21D;63946;51.986;5.930;2023-05-21T08:36:45;20.69;52.12
75357;HTU21D;63946;51.986;5.930;2023-05-21T08:39:49;20.70;52.28
75357;HTU21D;63946;51.986;5.930;2023-05-21T08:42:47;20.74;52.14
75357;HTU21D;63946;51.986;5.930;2023-05-21T08:45:26;20.85;51.97
75357;HTU21D;63946;51.986;5.930;2023-05-21T08:48:00;20.91;51.70
75357;HTU21D;63946;51.986;5.930;2023-05-21T08:50:32;21.13;51.53
75357;HTU21D;63946;51.986;5.930;2023-05-21T08:53:07;21.25;51.02
75357;HTU21D;63946;51.986;5.930;2023-05-21T08:55:36;21.31;50.88
75357;HTU21D;63946;51.986;5.930;2023-05-21T08:58:07;21.37;51.17
75357;HTU21D;63946;51.986;5.930;2023-05-21T09:00:37;21.33;50.73
75357;HTU21D;63946;51.986;5.930;2023-05-21T09:03:06;21.17;50.98
75357;HTU21D;63946;51.986;5.930;2023-05-21T09:05:41;21.24;50.95
75357;HTU21D;63946;51.986;5.930;2023-05-21T09:08:20;21.32;50.66
75357;HTU21D;63946;51.986;5.930;2023-05-21T09:11:01;21.21;50.66
75357;HTU21D;63946;51.986;5.930;2023-05-21T09:13:39;21.13;51.14
75357;HTU21D;63946;51.986;5.930;2023-05-21T09:16:15;21.23;51.33
75357;HTU21D;63946;51.986;5.930;2023-05-21T09:18:44;21.40;51.04
75357;HTU21D;63946;51.986;5.930;2023-05-21T09:21:27;21.42;50.63
75357;HTU21D;63946;51.986;5.930;2023-05-21T09:23:59;21.42;50.78
75357;HTU21D;63946;51.986;5.930;2023-05-21T09:26:31;21.54;50.48
75357;HTU21D;63946;51.986;5.930;2023-05-21T09:29:03;21.59;50.43
75357;HTU21D;63946;51.986;5.930;2023-05-21T09:31:32;21.60;50.28
75357;HTU21D;63946;51.986;5.930;2023-05-21T09:34:01;21.69;50.34
75357;HTU21D;63946;51.986;5.930;2023-05-21T09:36:32;21.79;50.03
75357;HTU21D;63946;51.986;5.930;2023-05-21T09:39:01;21.96;49.76
75357;HTU21D;63946;51.986;5.930;2023-05-21T09:41:31;22.02;49.15
75357;HTU21D;63946;51.986;5.930;2023-05-21T09:44:03;21.87;49.22
75357;HTU21D;63946;51.986;5.930;2023-05-21T09:46:40;21.80;49.75
75357;HTU21D;63946;51.986;5.930;2023-05-21T09:49:25;22.14;49.27
75357;HTU21D;63946;51.986;5.930;2023-05-21T09:51:55;22.20;48.80
75357;HTU21D;63946;51.986;5.930;2023-05-21T09:54:25;22.08;48.82
75357;HTU21D;63946;51.986;5.930;2023-05-21T09:57:01;22.11;49.09
75357;HTU21D;63946;51.986;5.930;2023-05-21T09:59:37;22.35;49.23
75357;HTU21D;63946;51.986;5.930;2023-05-21T10:02:22;22.61;48.20
75357;HTU21D;63946;51.986;5.930;2023-05-21T10:04:51;22.60;48.44
75357;HTU21D;63946;51.986;5.930;2023-05-21T10:07:21;22.65;48.08
75357;HTU21D;63946;51.986;5.930;2023-05-21T10:09:54;22.80;47.92
75357;HTU21D;63946;51.986;5.930;2023-05-21T10:12:25;22.83;47.86
75357;HTU21D;63946;51.986;5.930;2023-05-21T10:15:02;22.76;47.99
75357;HTU21D;63946;51.986;5.930;2023-05-21T10:17:35;22.60;48.12
75357;HTU21D;63946;51.986;5.930;2023-05-21T10:20:05;22.51;48.12
75357;HTU21D;63946;51.986;5.930;2023-05-21T10:22:36;22.42;48.47
75357;HTU21D;63946;51.986;5.930;2023-05-21T10:25:08;22.42;48.62
75357;HTU21D;63946;51.986;5.930;2023-05-21T10:27:37;22.61;48.48
75357;HTU21D;63946;51.986;5.930;2023-05-21T10:30:07;22.76;48.16
75357;HTU21D;63946;51.986;5.930;2023-05-21T10:32:38;22.93;47.73
75357;HTU21D;63946;51.986;5.930;2023-05-21T10:35:08;23.12;47.34
75357;HTU21D;63946;51.986;5.930;2023-05-21T10:37:37;23.09;47.01
75357;HTU21D;63946;51.986;5.930;2023-05-21T10:40:07;22.96;47.11
75357;HTU21D;63946;51.986;5.930;2023-05-21T10:48:46;22.75;47.73
75357;HTU21D;63946;51.986;5.930;2023-05-21T10:59:42;23.17;47.20
75357;HTU21D;63946;51.986;5.930;2023-05-21T11:02:13;23.27;46.80
75357;HTU21D;63946;51.986;5.930;2023-05-21T11:04:46;23.17;46.80
75357;HTU21D;63946;51.986;5.930;2023-05-21T11:07:22;23.06;47.38
75357;HTU21D;63946;51.986;5.930;2023-05-21T11:09:50;23.32;47.31
75357;HTU21D;63946;51.986;5.930;2023-05-21T11:12:20;23.53;46.75
75357;HTU21D;63946;51.986;5.930;2023-05-21T11:14:57;23.75;46.41
75357;HTU21D;63946;51.986;5.930;2023-05-21T11:17:38;23.95;45.89
75357;HTU21D;63946;51.986;5.930;2023-05-21T11:20:10;24.05;46.04
75357;HTU21D;63946;51.986;5.930;2023-05-21T11:22:39;24.30;45.25
75357;HTU21D;63946;51.986;5.930;2023-05-21T11:25:08;24.23;45.34
75357;HTU21D;63946;51.986;5.930;2023-05-21T11:27:39;24.15;45.09
75357;HTU21D;63946;51.986;5.930;2023-05-21T11:30:14;23.97;45.43
75357;HTU21D;63946;51.986;5.930;2023-05-21T11:38:13;24.00;45.66
75357;HTU21D;63946;51.986;5.930;2023-05-21T11:40:54;23.82;45.56
75357;HTU21D;63946;51.986;5.930;2023-05-21T11:43:22;23.85;45.64
75357;HTU21D;63946;51.986;5.930;2023-05-21T11:45:51;23.89;45.65
75357;HTU21D;63946;51.986;5.930;2023-05-21T11:48:23;24.08;45.40
75357;HTU21D;63946;51.986;5.930;2023-05-21T11:50:52;24.14;45.11
75357;HTU21D;63946;51.986;5.930;2023-05-21T11:53:22;24.10;45.17
75357;HTU21D;63946;51.986;5.930;2023-05-21T11:55:50;24.02;45.37
75357;HTU21D;63946;51.986;5.930;2023-05-21T11:58:22;24.01;45.46
75357;HTU21D;63946;51.986;5.930;2023-05-21T12:00:51;24.02;45.61
75357;HTU21D;63946;51.986;5.930;2023-05-21T12:03:23;24.26;45.23
75357;HTU21D;63946;51.986;5.930;2023-05-21T12:06:03;24.44;44.80
75357;HTU21D;63946;51.986;5.930;2023-05-21T12:08:35;24.42;44.60
75357;HTU21D;63946;51.986;5.930;2023-05-21T12:11:07;24.17;44.92
75357;HTU21D;63946;51.986;5.930;2023-05-21T12:13:36;24.01;45.25
75357;HTU21D;63946;51.986;5.930;2023-05-21T12:16:06;23.99;45.53
75357;HTU21D;63946;51.986;5.930;2023-05-21T12:18:38;24.14;45.41
75357;HTU21D;63946;51.986;5.930;2023-05-21T12:21:07;24.17;45.18
75357;HTU21D;63946;51.986;5.930;2023-05-21T12:23:36;24.25;45.38
75357;HTU21D;63946;51.986;5.930;2023-05-21T12:26:06;24.54;44.92
75357;HTU21D;63946;51.986;5.930;2023-05-21T12:28:35;24.57;44.68
75357;HTU21D;63946;51.986;5.930;2023-05-21T12:31:13;24.70;44.55
75357;HTU21D;63946;51.986;5.930;2023-05-21T12:33:52;24.74;44.31
75357;HTU21D;63946;51.986;5.930;2023-05-21T12:36:26;24.73;44.23
75357;HTU21D;63946;51.986;5.930;2023-05-21T12:38:56;24.73;44.18
75357;HTU21D;63946;51.986;5.930;2023-05-21T12:41:25;24.75;44.22
75357;HTU21D;63946;51.986;5.930;2023-05-21T12:43:57;24.69;44.33
75357;HTU21D;63946;51.986;5.930;2023-05-21T12:46:26;24.72;44.18
75357;HTU21D;63946;51.986;5.930;2023-05-21T12:48:55;24.65;44.18
75357;HTU21D;63946;51.986;5.930;2023-05-21T12:51:25;24.83;44.07
75357;HTU21D;63946;51.986;5.930;2023-05-21T12:53:53;25.02;43.73
75357;HTU21D;63946;51.986;5.930;2023-05-21T12:56:22;25.13;43.56
75357;HTU21D;63946;51.986;5.930;2023-05-21T12:58:51;25.19;43.77
75357;HTU21D;63946;51.986;5.930;2023-05-21T13:01:20;25.17;43.59
75357;HTU21D;63946;51.986;5.930;2023-05-21T13:03:49;25.07;43.78
75357;HTU21D;63946;51.986;5.930;2023-05-21T13:06:18;24.95;43.89
75357;HTU21D;63946;51.986;5.930;2023-05-21T13:08:47;24.80;43.87
75357;HTU21D;63946;51.986;5.930;2023-05-21T13:11:16;24.63;44.24
75357;HTU21D;63946;51.986;5.930;2023-05-21T13:13:44;24.55;44.74
75357;HTU21D;63946;51.986;5.930;2023-05-21T13:16:13;24.72;44.60
75357;HTU21D;63946;51.986;5.930;2023-05-21T13:18:42;24.91;44.33
75357;HTU21D;63946;51.986;5.930;2023-05-21T13:21:13;25.06;43.69
75357;HTU21D;63946;51.986;5.930;2023-05-21T13:23:42;25.09;43.60
75357;HTU21D;63946;51.986;5.930;2023-05-21T13:26:11;25.10;43.78
75357;HTU21D;63946;51.986;5.930;2023-05-21T13:28:39;25.24;44.06
75357;HTU21D;63946;51.986;5.930;2023-05-21T13:31:08;25.47;43.59
75357;HTU21D;63946;51.986;5.930;2023-05-21T13:33:38;25.51;43.33
75357;HTU21D;63946;51.986;5.930;2023-05-21T13:36:07;25.46;43.29
75357;HTU21D;63946;51.986;5.930;2023-05-21T13:38:36;25.65;42.99
75357;HTU21D;63946;51.986;5.930;2023-05-21T13:41:05;25.61;42.62
75357;HTU21D;63946;51.986;5.930;2023-05-21T13:43:34;25.45;43.06
75357;HTU21D;63946;51.986;5.930;2023-05-21T13:46:03;25.42;43.52
75357;HTU21D;63946;51.986;5.930;2023-05-21T13:48:31;25.45;43.32
75357;HTU21D;63946;51.986;5.930;2023-05-21T13:51:00;25.44;43.42
75357;HTU21D;63946;51.986;5.930;2023-05-21T13:53:32;25.52;43.42
75357;HTU21D;63946;51.986;5.930;2023-05-21T13:56:03;25.62;43.06
75357;HTU21D;63946;51.986;5.930;2023-05-21T13:58:32;25.52;42.87
75357;HTU21D;63946;51.986;5.930;2023-05-21T14:01:01;25.53;42.84
75357;HTU21D;63946;51.986;5.930;2023-05-21T14:03:30;25.49;43.00
75357;HTU21D;63946;51.986;5.930;2023-05-21T14:05:59;25.48;43.16
75357;HTU21D;63946;51.986;5.930;2023-05-21T14:08:28;25.35;43.03
75357;HTU21D;63946;51.986;5.930;2023-05-21T14:10:56;25.18;43.51
75357;HTU21D;63946;51.986;5.930;2023-05-21T14:13:25;25.24;43.83
75357;HTU21D;63946;51.986;5.930;2023-05-21T14:15:54;25.36;43.61
75357;HTU21D;63946;51.986;5.930;2023-05-21T14:18:25;25.50;43.50
75357;HTU21D;63946;51.986;5.930;2023-05-21T14:20:53;25.67;43.06
75357;HTU21D;63946;51.986;5.930;2023-05-21T14:23:22;25.62;43.05
75357;HTU21D;63946;51.986;5.930;2023-05-21T14:25:51;25.52;43.39
75357;HTU21D;63946;51.986;5.930;2023-05-21T14:28:29;25.59;43.12
75357;HTU21D;63946;51.986;5.930;2023-05-21T14:30:57;25.57;43.05
75357;HTU21D;63946;51.986;5.930;2023-05-21T14:33:26;25.38;43.34
75357;HTU21D;63946;51.986;5.930;2023-05-21T14:35:59;25.30;43.43
75357;HTU21D;63946;51.986;5.930;2023-05-21T14:38:28;25.23;43.70
75357;HTU21D;63946;51.986;5.930;2023-05-21T14:40:57;25.20;43.91
75357;HTU21D;63946;51.986;5.930;2023-05-21T14:43:26;25.31;43.80
75357;HTU21D;63946;51.986;5.930;2023-05-21T14:45:54;25.39;43.48
75357;HTU21D;63946;51.986;5.930;2023-05-21T14:48:23;25.18;43.87
75357;HTU21D;63946;51.986;5.930;2023-05-21T14:50:52;25.04;44.09
75357;HTU21D;63946;51.986;5.930;2023-05-21T14:53:21;25.00;44.35
75357;HTU21D;63946;51.986;5.930;2023-05-21T14:55:49;25.19;44.24
75357;HTU21D;63946;51.986;5.930;2023-05-21T14:58:18;25.29;43.96
75357;HTU21D;63946;51.986;5.930;2023-05-21T15:00:47;25.36;43.84
75357;HTU21D;63946;51.986;5.930;2023-05-21T15:03:16;25.39;43.67
75357;HTU21D;63946;51.986;5.930;2023-05-21T15:05:44;25.39;43.90
75357;HTU21D;63946;51.986;5.930;2023-05-21T15:08:13;25.46;43.79
75357;HTU21D;63946;51.986;5.930;2023-05-21T15:10:42;25.40;43.64
75357;HTU21D;63946;51.986;5.930;2023-05-21T15:13:11;25.14;44.09
75357;HTU21D;63946;51.986;5.930;2023-05-21T15:15:39;24.95;44.64
75357;HTU21D;63946;51.986;5.930;2023-05-21T15:18:08;25.05;44.61
75357;HTU21D;63946;51.986;5.930;2023-05-21T15:20:42;25.18;44.22
75357;HTU21D;63946;51.986;5.930;2023-05-21T15:23:11;25.29;44.04
75357;HTU21D;63946;51.986;5.930;2023-05-21T15:25:40;25.25;44.01
75357;HTU21D;63946;51.986;5.930;2023-05-21T15:28:12;25.12;44.42
75357;HTU21D;63946;51.986;5.930;2023-05-21T15:30:41;25.10;44.64
75357;HTU21D;63946;51.986;5.930;2023-05-21T15:33:10;25.09;44.58
75357;HTU21D;63946;51.986;5.930;2023-05-21T15:35:38;25.12;44.48
75357;HTU21D;63946;51.986;5.930;2023-05-21T15:38:16;25.10;44.33
75357;HTU21D;63946;51.986;5.930;2023-05-21T15:40:46;25.05;44.90
75357;HTU21D;63946;51.986;5.930;2023-05-21T15:43:15;25.10;44.69
75357;HTU21D;63946;51.986;5.930;2023-05-21T15:45:43;25.09;44.53
75357;HTU21D;63946;51.986;5.930;2023-05-21T15:48:18;25.03;44.38
75357;HTU21D;63946;51.986;5.930;2023-05-21T15:50:49;24.95;44.75
75357;HTU21D;63946;51.986;5.930;2023-05-21T15:53:19;25.02;44.69
75357;HTU21D;63946;51.986;5.930;2023-05-21T15:55:47;25.05;44.55